sensor_id;sensor_type;location;lat;lon;timestamp;P1;durP1;ratioP1;P2;durP2;ratioP2
20014;SDS011;61787;42.022;23.078;2023-01-15T00:00:42;66.27;;;40.97;;
20014;SDS011;61787;42.022;23.078;2023-01-15T00:01:43;63.20;;;40.10;;
20014;SDS011;61787;42.022;23.078;2023-01-15T00:02:45;61.40;;;37.27;;
20014;SDS011;61787;42.022;23.078;2023-01-15T00:03:47;66.13;;;38.97;;
20014;SDS011;61787;42.022;23.078;2023-01-15T00:04:50;67.80;;;39.00;;
20014;SDS011;61787;42.022;23.078;2023-01-15T00:05:51;67.83;;;41.00;;
20014;SDS011;61787;42.022;23.078;2023-01-15T00:06:53;67.37;;;40.67;;
20014;SDS011;61787;42.022;23.078;2023-01-15T00:07:55;60.40;;;39.27;;
20014;SDS011;61787;42.022;23.078;2023-01-15T00:08:56;60.63;;;39.30;;
20014;SDS011;61787;42.022;23.078;2023-01-15T00:09:59;59.40;;;37.07;;
20014;SDS011;61787;42.022;23.078;2023-01-15T00:11:04;59.17;;;38.10;;
20014;SDS011;61787;42.022;23.078;2023-01-15T00:12:06;62.20;;;37.10;;
20014;SDS011;61787;42.022;23.078;2023-01-15T00:13:07;65.43;;;39.80;;
20014;SDS011;61787;42.022;23.078;2023-01-15T00:14:09;57.17;;;38.07;;
20014;SDS011;61787;42.022;23.078;2023-01-15T00:15:11;59.50;;;37.67;;
20014;SDS011;61787;42.022;23.078;2023-01-15T00:16:18;55.13;;;35.43;;
20014;SDS011;61787;42.022;23.078;2023-01-15T00:17:22;57.00;;;36.13;;
20014;SDS011;61787;42.022;23.078;2023-01-15T00:18:23;57.83;;;36.20;;
20014;SDS011;61787;42.022;23.078;2023-01-15T00:19:25;58.90;;;36.50;;
20014;SDS011;61787;42.022;23.078;2023-01-15T00:20:26;62.20;;;36.30;;
20014;SDS011;61787;42.022;23.078;2023-01-15T00:21:28;58.17;;;36.47;;
20014;SDS011;61787;42.022;23.078;2023-01-15T00:22:32;61.40;;;39.00;;
20014;SDS011;61787;42.022;23.078;2023-01-15T00:23:33;56.73;;;36.23;;
20014;SDS011;61787;42.022;23.078;2023-01-15T00:24:54;58.47;;;34.53;;
20014;SDS011;61787;42.022;23.078;2023-01-15T00:26:14;54.70;;;34.93;;
20014;SDS011;61787;42.022;23.078;2023-01-15T00:27:36;51.10;;;32.90;;
20014;SDS011;61787;42.022;23.078;2023-01-15T00:28:41;51.53;;;33.70;;
20014;SDS011;61787;42.022;23.078;2023-01-15T00:29:42;59.67;;;35.57;;
20014;SDS011;61787;42.022;23.078;2023-01-15T00:30:44;45.90;;;29.20;;
20014;SDS011;61787;42.022;23.078;2023-01-15T00:31:51;46.43;;;28.27;;
20014;SDS011;61787;42.022;23.078;2023-01-15T00:32:56;43.60;;;28.77;;
20014;SDS011;61787;42.022;23.078;2023-01-15T00:33:59;42.53;;;27.67;;
20014;SDS011;61787;42.022;23.078;2023-01-15T00:35:01;46.77;;;30.33;;
20014;SDS011;61787;42.022;23.078;2023-01-15T00:36:02;46.03;;;30.40;;
20014;SDS011;61787;42.022;23.078;2023-01-15T00:37:04;45.33;;;29.13;;
20014;SDS011;61787;42.022;23.078;2023-01-15T00:38:06;43.63;;;28.17;;
20014;SDS011;61787;42.022;23.078;2023-01-15T00:39:07;47.13;;;28.30;;
20014;SDS011;61787;42.022;23.078;2023-01-15T00:40:09;43.60;;;27.60;;
20014;SDS011;61787;42.022;23.078;2023-01-15T00:41:12;48.70;;;29.33;;
20014;SDS011;61787;42.022;23.078;2023-01-15T00:42:13;46.07;;;29.37;;
20014;SDS011;61787;42.022;23.078;2023-01-15T00:43:16;47.27;;;28.23;;
20014;SDS011;61787;42.022;23.078;2023-01-15T00:44:17;48.43;;;30.13;;
20014;SDS011;61787;42.022;23.078;2023-01-15T00:45:20;49.47;;;29.50;;
20014;SDS011;61787;42.022;23.078;2023-01-15T00:46:22;49.70;;;31.60;;
20014;SDS011;61787;42.022;23.078;2023-01-15T00:47:23;50.77;;;33.17;;
20014;SDS011;61787;42.022;23.078;2023-01-15T00:48:25;55.77;;;32.60;;
20014;SDS011;61787;42.022;23.078;2023-01-15T00:49:27;50.20;;;32.57;;
20014;SDS011;61787;42.022;23.078;2023-01-15T00:50:29;53.03;;;32.63;;
20014;SDS011;61787;42.022;23.078;2023-01-15T00:51:30;53.67;;;32.20;;
20014;SDS011;61787;42.022;23.078;2023-01-15T00:52:33;52.63;;;33.33;;
20014;SDS011;61787;42.022;23.078;2023-01-15T00:53:34;51.83;;;31.43;;
20014;SDS011;61787;42.022;23.078;2023-01-15T00:54:36;50.07;;;31.23;;
20014;SDS011;61787;42.022;23.078;2023-01-15T00:55:37;47.07;;;31.07;;
20014;SDS011;61787;42.022;23.078;2023-01-15T00:56:39;57.20;;;32.17;;
20014;SDS011;61787;42.022;23.078;2023-01-15T00:57:40;57.17;;;34.33;;
20014;SDS011;61787;42.022;23.078;2023-01-15T00:58:42;66.43;;;36.27;;
20014;SDS011;61787;42.022;23.078;2023-01-15T00:59:44;58.93;;;36.10;;
20014;SDS011;61787;42.022;23.078;2023-01-15T01:00:45;58.47;;;35.13;;
20014;SDS011;61787;42.022;23.078;2023-01-15T01:01:49;51.57;;;33.03;;
20014;SDS011;61787;42.022;23.078;2023-01-15T01:02:51;51.80;;;32.27;;
20014;SDS011;61787;42.022;23.078;2023-01-15T01:03:52;53.30;;;33.40;;
20014;SDS011;61787;42.022;23.078;2023-01-15T01:04:54;54.00;;;31.87;;
20014;SDS011;61787;42.022;23.078;2023-01-15T01:06:00;50.90;;;31.70;;
20014;SDS011;61787;42.022;23.078;2023-01-15T01:07:02;45.67;;;28.67;;
20014;SDS011;61787;42.022;23.078;2023-01-15T01:08:04;43.47;;;27.10;;
20014;SDS011;61787;42.022;23.078;2023-01-15T01:09:05;44.63;;;27.97;;
20014;SDS011;61787;42.022;23.078;2023-01-15T01:10:07;45.70;;;27.47;;
20014;SDS011;61787;42.022;23.078;2023-01-15T01:11:10;40.67;;;25.43;;
20014;SDS011;61787;42.022;23.078;2023-01-15T01:12:13;42.23;;;25.27;;
20014;SDS011;61787;42.022;23.078;2023-01-15T01:13:15;37.27;;;24.53;;
20014;SDS011;61787;42.022;23.078;2023-01-15T01:14:16;38.30;;;25.10;;
20014;SDS011;61787;42.022;23.078;2023-01-15T01:15:22;42.33;;;25.97;;
20014;SDS011;61787;42.022;23.078;2023-01-15T01:16:34;43.47;;;26.47;;
20014;SDS011;61787;42.022;23.078;2023-01-15T01:17:38;43.83;;;25.67;;
20014;SDS011;61787;42.022;23.078;2023-01-15T01:18:39;45.13;;;27.73;;
20014;SDS011;61787;42.022;23.078;2023-01-15T01:19:41;44.97;;;27.93;;
20014;SDS011;61787;42.022;23.078;2023-01-15T01:20:42;44.33;;;27.17;;
20014;SDS011;61787;42.022;23.078;2023-01-15T01:21:44;51.30;;;30.03;;
20014;SDS011;61787;42.022;23.078;2023-01-15T01:22:47;44.47;;;30.07;;
20014;SDS011;61787;42.022;23.078;2023-01-15T01:23:49;48.93;;;30.00;;
20014;SDS011;61787;42.022;23.078;2023-01-15T01:24:51;47.50;;;29.33;;
20014;SDS011;61787;42.022;23.078;2023-01-15T01:25:52;47.43;;;28.97;;
20014;SDS011;61787;42.022;23.078;2023-01-15T01:26:54;43.53;;;28.70;;
20014;SDS011;61787;42.022;23.078;2023-01-15T01:27:56;47.50;;;28.63;;
20014;SDS011;61787;42.022;23.078;2023-01-15T01:28:57;42.97;;;27.40;;
20014;SDS011;61787;42.022;23.078;2023-01-15T01:29:59;43.17;;;27.70;;
20014;SDS011;61787;42.022;23.078;2023-01-15T01:31:04;43.00;;;27.10;;
20014;SDS011;61787;42.022;23.078;2023-01-15T01:32:06;41.93;;;25.90;;
20014;SDS011;61787;42.022;23.078;2023-01-15T01:33:08;44.33;;;26.57;;
20014;SDS011;61787;42.022;23.078;2023-01-15T01:34:10;41.33;;;24.93;;
20014;SDS011;61787;42.022;23.078;2023-01-15T01:35:12;45.53;;;27.57;;
20014;SDS011;61787;42.022;23.078;2023-01-15T01:36:14;43.90;;;26.17;;
20014;SDS011;61787;42.022;23.078;2023-01-15T01:37:16;41.33;;;25.80;;
20014;SDS011;61787;42.022;23.078;2023-01-15T01:38:17;44.10;;;26.00;;
20014;SDS011;61787;42.022;23.078;2023-01-15T01:39:19;36.87;;;25.23;;
20014;SDS011;61787;42.022;23.078;2023-01-15T01:40:20;43.57;;;26.90;;
20014;SDS011;61787;42.022;23.078;2023-01-15T01:41:22;40.77;;;25.63;;
20014;SDS011;61787;42.022;23.078;2023-01-15T01:42:24;42.07;;;25.90;;
20014;SDS011;61787;42.022;23.078;2023-01-15T01:43:27;41.90;;;25.23;;
20014;SDS011;61787;42.022;23.078;2023-01-15T01:45:37;41.30;;;25.70;;
20014;SDS011;61787;42.022;23.078;2023-01-15T01:46:39;49.13;;;26.57;;
20014;SDS011;61787;42.022;23.078;2023-01-15T01:47:40;43.73;;;26.73;;
20014;SDS011;61787;42.022;23.078;2023-01-15T01:48:42;40.27;;;25.27;;
20014;SDS011;61787;42.022;23.078;2023-01-15T01:49:43;42.10;;;25.43;;
20014;SDS011;61787;42.022;23.078;2023-01-15T01:50:46;36.90;;;24.60;;
20014;SDS011;61787;42.022;23.078;2023-01-15T01:51:52;41.87;;;24.80;;
20014;SDS011;61787;42.022;23.078;2023-01-15T01:53:02;39.27;;;24.90;;
20014;SDS011;61787;42.022;23.078;2023-01-15T01:54:07;41.70;;;25.23;;
20014;SDS011;61787;42.022;23.078;2023-01-15T01:55:11;37.37;;;23.67;;
20014;SDS011;61787;42.022;23.078;2023-01-15T01:56:15;41.07;;;23.73;;
20014;SDS011;61787;42.022;23.078;2023-01-15T01:57:20;36.77;;;22.97;;
20014;SDS011;61787;42.022;23.078;2023-01-15T01:58:23;38.33;;;22.93;;
20014;SDS011;61787;42.022;23.078;2023-01-15T01:59:31;36.67;;;23.00;;
20014;SDS011;61787;42.022;23.078;2023-01-15T02:00:33;36.73;;;22.00;;
20014;SDS011;61787;42.022;23.078;2023-01-15T02:01:36;34.03;;;21.97;;
20014;SDS011;61787;42.022;23.078;2023-01-15T02:02:39;39.40;;;23.87;;
20014;SDS011;61787;42.022;23.078;2023-01-15T02:03:44;36.00;;;22.13;;
20014;SDS011;61787;42.022;23.078;2023-01-15T02:04:46;33.67;;;21.70;;
20014;SDS011;61787;42.022;23.078;2023-01-15T02:05:49;35.33;;;22.40;;
20014;SDS011;61787;42.022;23.078;2023-01-15T02:06:54;38.17;;;21.87;;
20014;SDS011;61787;42.022;23.078;2023-01-15T02:07:56;32.57;;;21.30;;
20014;SDS011;61787;42.022;23.078;2023-01-15T02:08:58;36.87;;;22.03;;
20014;SDS011;61787;42.022;23.078;2023-01-15T02:10:00;35.40;;;22.13;;
20014;SDS011;61787;42.022;23.078;2023-01-15T02:11:01;35.63;;;22.40;;
20014;SDS011;61787;42.022;23.078;2023-01-15T02:12:37;38.83;;;25.03;;
20014;SDS011;61787;42.022;23.078;2023-01-15T02:13:36;41.67;;;24.47;;
20014;SDS011;61787;42.022;23.078;2023-01-15T02:17:35;47.83;;;28.90;;
20014;SDS011;61787;42.022;23.078;2023-01-15T02:18:42;43.50;;;27.33;;
20014;SDS011;61787;42.022;23.078;2023-01-15T02:22:56;39.83;;;24.57;;
20014;SDS011;61787;42.022;23.078;2023-01-15T02:24:08;40.40;;;25.27;;
20014;SDS011;61787;42.022;23.078;2023-01-15T02:25:22;43.27;;;27.13;;
20014;SDS011;61787;42.022;23.078;2023-01-15T02:28:26;43.53;;;28.43;;
20014;SDS011;61787;42.022;23.078;2023-01-15T02:31:05;54.30;;;33.27;;
20014;SDS011;61787;42.022;23.078;2023-01-15T02:32:14;51.43;;;31.60;;
20014;SDS011;61787;42.022;23.078;2023-01-15T02:33:21;49.50;;;31.53;;
20014;SDS011;61787;42.022;23.078;2023-01-15T02:34:30;45.47;;;30.30;;
20014;SDS011;61787;42.022;23.078;2023-01-15T02:35:37;46.63;;;30.60;;
20014;SDS011;61787;42.022;23.078;2023-01-15T02:36:46;45.87;;;29.30;;
20014;SDS011;61787;42.022;23.078;2023-01-15T02:37:54;45.37;;;28.97;;
20014;SDS011;61787;42.022;23.078;2023-01-15T02:39:00;45.97;;;28.23;;
20014;SDS011;61787;42.022;23.078;2023-01-15T02:40:06;40.40;;;25.53;;
20014;SDS011;61787;42.022;23.078;2023-01-15T02:41:10;35.50;;;23.50;;
20014;SDS011;61787;42.022;23.078;2023-01-15T02:42:16;39.90;;;24.80;;
20014;SDS011;61787;42.022;23.078;2023-01-15T02:43:21;38.23;;;25.00;;
20014;SDS011;61787;42.022;23.078;2023-01-15T02:44:24;37.53;;;24.03;;
20014;SDS011;61787;42.022;23.078;2023-01-15T02:45:30;34.83;;;23.97;;
20014;SDS011;61787;42.022;23.078;2023-01-15T02:46:35;40.13;;;25.47;;
20014;SDS011;61787;42.022;23.078;2023-01-15T02:47:39;41.50;;;25.83;;
20014;SDS011;61787;42.022;23.078;2023-01-15T02:48:45;40.57;;;25.90;;
20014;SDS011;61787;42.022;23.078;2023-01-15T02:49:50;38.30;;;25.20;;
20014;SDS011;61787;42.022;23.078;2023-01-15T02:50:58;39.43;;;24.40;;
20014;SDS011;61787;42.022;23.078;2023-01-15T02:52:09;37.00;;;24.80;;
20014;SDS011;61787;42.022;23.078;2023-01-15T02:53:18;33.17;;;23.60;;
20014;SDS011;61787;42.022;23.078;2023-01-15T02:54:27;37.10;;;24.77;;
20014;SDS011;61787;42.022;23.078;2023-01-15T02:55:35;38.33;;;24.27;;
20014;SDS011;61787;42.022;23.078;2023-01-15T02:56:39;34.87;;;23.53;;
20014;SDS011;61787;42.022;23.078;2023-01-15T02:57:46;37.30;;;23.33;;
20014;SDS011;61787;42.022;23.078;2023-01-15T02:58:51;39.33;;;23.40;;
20014;SDS011;61787;42.022;23.078;2023-01-15T02:59:58;35.37;;;24.27;;
20014;SDS011;61787;42.022;23.078;2023-01-15T03:01:06;38.33;;;25.80;;
20014;SDS011;61787;42.022;23.078;2023-01-15T03:02:18;40.50;;;26.10;;
20014;SDS011;61787;42.022;23.078;2023-01-15T03:03:32;35.80;;;24.33;;
20014;SDS011;61787;42.022;23.078;2023-01-15T03:04:43;39.03;;;26.70;;
20014;SDS011;61787;42.022;23.078;2023-01-15T03:05:52;37.43;;;25.43;;
20014;SDS011;61787;42.022;23.078;2023-01-15T03:08:06;40.83;;;25.93;;
20014;SDS011;61787;42.022;23.078;2023-01-15T03:09:08;48.40;;;30.40;;
20014;SDS011;61787;42.022;23.078;2023-01-15T03:10:11;59.97;;;33.50;;
20014;SDS011;61787;42.022;23.078;2023-01-15T03:11:16;49.03;;;31.13;;
20014;SDS011;61787;42.022;23.078;2023-01-15T03:15:09;41.90;;;27.07;;
20014;SDS011;61787;42.022;23.078;2023-01-15T03:16:52;40.50;;;25.53;;
20014;SDS011;61787;42.022;23.078;2023-01-15T03:17:57;42.43;;;26.07;;
20014;SDS011;61787;42.022;23.078;2023-01-15T03:20:31;38.43;;;24.23;;
20014;SDS011;61787;42.022;23.078;2023-01-15T03:23:02;39.10;;;24.97;;
20014;SDS011;61787;42.022;23.078;2023-01-15T03:24:09;39.10;;;25.13;;
20014;SDS011;61787;42.022;23.078;2023-01-15T03:25:23;39.20;;;24.23;;
20014;SDS011;61787;42.022;23.078;2023-01-15T03:26:27;35.53;;;24.73;;
20014;SDS011;61787;42.022;23.078;2023-01-15T03:27:29;38.57;;;24.83;;
20014;SDS011;61787;42.022;23.078;2023-01-15T03:28:31;38.10;;;24.43;;
20014;SDS011;61787;42.022;23.078;2023-01-15T03:29:37;38.30;;;24.77;;
20014;SDS011;61787;42.022;23.078;2023-01-15T03:30:43;36.00;;;23.13;;
20014;SDS011;61787;42.022;23.078;2023-01-15T03:31:45;35.00;;;24.27;;
20014;SDS011;61787;42.022;23.078;2023-01-15T03:32:46;34.90;;;23.33;;
20014;SDS011;61787;42.022;23.078;2023-01-15T03:33:48;37.90;;;24.07;;
20014;SDS011;61787;42.022;23.078;2023-01-15T03:34:54;39.30;;;23.70;;
20014;SDS011;61787;42.022;23.078;2023-01-15T03:35:57;33.20;;;22.93;;
20014;SDS011;61787;42.022;23.078;2023-01-15T03:37:00;37.13;;;24.60;;
20014;SDS011;61787;42.022;23.078;2023-01-15T03:38:02;37.63;;;24.27;;
20014;SDS011;61787;42.022;23.078;2023-01-15T03:39:04;40.40;;;24.53;;
20014;SDS011;61787;42.022;23.078;2023-01-15T03:40:06;41.00;;;24.97;;
20014;SDS011;61787;42.022;23.078;2023-01-15T03:42:49;39.27;;;24.23;;
20014;SDS011;61787;42.022;23.078;2023-01-15T03:45:30;37.93;;;24.00;;
20014;SDS011;61787;42.022;23.078;2023-01-15T03:46:49;37.60;;;23.33;;
20014;SDS011;61787;42.022;23.078;2023-01-15T03:51:59;35.30;;;22.93;;
20014;SDS011;61787;42.022;23.078;2023-01-15T03:53:11;34.80;;;23.33;;
20014;SDS011;61787;42.022;23.078;2023-01-15T03:54:23;35.97;;;23.13;;
20014;SDS011;61787;42.022;23.078;2023-01-15T03:55:39;38.50;;;23.37;;
20014;SDS011;61787;42.022;23.078;2023-01-15T03:56:44;39.13;;;23.90;;
20014;SDS011;61787;42.022;23.078;2023-01-15T03:57:59;37.37;;;23.73;;
20014;SDS011;61787;42.022;23.078;2023-01-15T03:59:20;34.23;;;23.37;;
20014;SDS011;61787;42.022;23.078;2023-01-15T04:01:38;43.13;;;24.83;;
20014;SDS011;61787;42.022;23.078;2023-01-15T04:02:43;39.67;;;25.47;;
20014;SDS011;61787;42.022;23.078;2023-01-15T04:03:47;38.33;;;25.03;;
20014;SDS011;61787;42.022;23.078;2023-01-15T04:04:51;38.50;;;24.73;;
20014;SDS011;61787;42.022;23.078;2023-01-15T04:05:56;37.10;;;24.47;;
20014;SDS011;61787;42.022;23.078;2023-01-15T04:07:01;41.90;;;26.50;;
20014;SDS011;61787;42.022;23.078;2023-01-15T04:08:04;44.03;;;27.23;;
20014;SDS011;61787;42.022;23.078;2023-01-15T04:09:07;35.83;;;24.63;;
20014;SDS011;61787;42.022;23.078;2023-01-15T04:10:11;41.20;;;26.70;;
20014;SDS011;61787;42.022;23.078;2023-01-15T04:11:20;41.53;;;25.73;;
20014;SDS011;61787;42.022;23.078;2023-01-15T04:12:23;39.13;;;26.00;;
20014;SDS011;61787;42.022;23.078;2023-01-15T04:13:25;42.80;;;26.10;;
20014;SDS011;61787;42.022;23.078;2023-01-15T04:14:31;43.70;;;25.77;;
20014;SDS011;61787;42.022;23.078;2023-01-15T04:15:33;43.43;;;26.20;;
20014;SDS011;61787;42.022;23.078;2023-01-15T04:16:35;56.77;;;33.53;;
20014;SDS011;61787;42.022;23.078;2023-01-15T04:17:37;45.93;;;28.17;;
20014;SDS011;61787;42.022;23.078;2023-01-15T04:18:38;40.90;;;26.33;;
20014;SDS011;61787;42.022;23.078;2023-01-15T04:19:40;38.90;;;26.33;;
20014;SDS011;61787;42.022;23.078;2023-01-15T04:20:43;42.47;;;26.87;;
20014;SDS011;61787;42.022;23.078;2023-01-15T04:21:45;36.97;;;26.33;;
20014;SDS011;61787;42.022;23.078;2023-01-15T04:22:47;39.80;;;26.93;;
20014;SDS011;61787;42.022;23.078;2023-01-15T04:23:49;41.83;;;26.00;;
20014;SDS011;61787;42.022;23.078;2023-01-15T04:24:51;44.03;;;26.47;;
20014;SDS011;61787;42.022;23.078;2023-01-15T04:25:55;39.83;;;27.33;;
20014;SDS011;61787;42.022;23.078;2023-01-15T04:26:57;41.70;;;26.87;;
20014;SDS011;61787;42.022;23.078;2023-01-15T04:27:58;38.87;;;25.43;;
20014;SDS011;61787;42.022;23.078;2023-01-15T04:29:00;38.47;;;24.60;;
20014;SDS011;61787;42.022;23.078;2023-01-15T04:30:01;38.87;;;25.73;;
20014;SDS011;61787;42.022;23.078;2023-01-15T04:31:03;38.80;;;26.40;;
20014;SDS011;61787;42.022;23.078;2023-01-15T04:32:05;39.17;;;26.10;;
20014;SDS011;61787;42.022;23.078;2023-01-15T04:33:07;41.67;;;25.63;;
20014;SDS011;61787;42.022;23.078;2023-01-15T04:34:08;38.30;;;26.33;;
20014;SDS011;61787;42.022;23.078;2023-01-15T04:35:10;39.80;;;24.33;;
20014;SDS011;61787;42.022;23.078;2023-01-15T04:36:11;37.53;;;24.83;;
20014;SDS011;61787;42.022;23.078;2023-01-15T04:37:15;38.53;;;26.00;;
20014;SDS011;61787;42.022;23.078;2023-01-15T04:38:17;39.07;;;25.23;;
20014;SDS011;61787;42.022;23.078;2023-01-15T04:39:18;38.37;;;25.80;;
20014;SDS011;61787;42.022;23.078;2023-01-15T04:40:20;41.73;;;27.57;;
20014;SDS011;61787;42.022;23.078;2023-01-15T04:41:40;40.43;;;26.00;;
20014;SDS011;61787;42.022;23.078;2023-01-15T04:43:00;38.97;;;25.50;;
20014;SDS011;61787;42.022;23.078;2023-01-15T04:44:20;41.37;;;25.87;;
20014;SDS011;61787;42.022;23.078;2023-01-15T04:45:22;35.03;;;24.97;;
20014;SDS011;61787;42.022;23.078;2023-01-15T04:46:23;39.63;;;26.10;;
20014;SDS011;61787;42.022;23.078;2023-01-15T04:47:25;38.73;;;25.40;;
20014;SDS011;61787;42.022;23.078;2023-01-15T04:48:30;39.40;;;26.40;;
20014;SDS011;61787;42.022;23.078;2023-01-15T04:49:32;38.43;;;25.67;;
20014;SDS011;61787;42.022;23.078;2023-01-15T04:50:35;35.63;;;23.77;;
20014;SDS011;61787;42.022;23.078;2023-01-15T04:51:38;39.33;;;24.97;;
20014;SDS011;61787;42.022;23.078;2023-01-15T04:52:40;35.90;;;25.10;;
20014;SDS011;61787;42.022;23.078;2023-01-15T04:53:42;35.93;;;23.50;;
20014;SDS011;61787;42.022;23.078;2023-01-15T04:54:43;39.60;;;24.57;;
20014;SDS011;61787;42.022;23.078;2023-01-15T04:55:45;40.03;;;24.00;;
20014;SDS011;61787;42.022;23.078;2023-01-15T04:56:48;36.67;;;24.30;;
20014;SDS011;61787;42.022;23.078;2023-01-15T04:57:51;39.70;;;24.73;;
20014;SDS011;61787;42.022;23.078;2023-01-15T04:58:52;39.80;;;27.00;;
20014;SDS011;61787;42.022;23.078;2023-01-15T04:59:54;46.27;;;29.10;;
20014;SDS011;61787;42.022;23.078;2023-01-15T05:00:56;42.20;;;27.93;;
20014;SDS011;61787;42.022;23.078;2023-01-15T05:01:57;41.97;;;27.73;;
20014;SDS011;61787;42.022;23.078;2023-01-15T05:03:05;43.43;;;29.30;;
20014;SDS011;61787;42.022;23.078;2023-01-15T05:04:07;44.70;;;28.50;;
20014;SDS011;61787;42.022;23.078;2023-01-15T05:05:08;48.20;;;30.27;;
20014;SDS011;61787;42.022;23.078;2023-01-15T05:06:10;49.23;;;31.70;;
20014;SDS011;61787;42.022;23.078;2023-01-15T05:07:14;49.13;;;28.93;;
20014;SDS011;61787;42.022;23.078;2023-01-15T05:08:16;43.17;;;27.27;;
20014;SDS011;61787;42.022;23.078;2023-01-15T05:09:17;46.33;;;27.53;;
20014;SDS011;61787;42.022;23.078;2023-01-15T05:10:19;48.13;;;28.43;;
20014;SDS011;61787;42.022;23.078;2023-01-15T05:11:20;44.43;;;27.70;;
20014;SDS011;61787;42.022;23.078;2023-01-15T05:12:22;43.83;;;27.43;;
20014;SDS011;61787;42.022;23.078;2023-01-15T05:13:24;44.10;;;26.30;;
20014;SDS011;61787;42.022;23.078;2023-01-15T05:14:25;43.80;;;26.27;;
20014;SDS011;61787;42.022;23.078;2023-01-15T05:15:27;44.70;;;26.97;;
20014;SDS011;61787;42.022;23.078;2023-01-15T05:16:29;46.67;;;26.67;;
20014;SDS011;61787;42.022;23.078;2023-01-15T05:17:31;43.70;;;25.87;;
20014;SDS011;61787;42.022;23.078;2023-01-15T05:18:33;47.40;;;27.70;;
20014;SDS011;61787;42.022;23.078;2023-01-15T05:19:35;44.40;;;26.93;;
20014;SDS011;61787;42.022;23.078;2023-01-15T05:20:37;45.67;;;27.63;;
20014;SDS011;61787;42.022;23.078;2023-01-15T05:21:39;45.03;;;27.17;;
20014;SDS011;61787;42.022;23.078;2023-01-15T05:22:45;42.77;;;25.63;;
20014;SDS011;61787;42.022;23.078;2023-01-15T05:23:48;42.80;;;25.97;;
20014;SDS011;61787;42.022;23.078;2023-01-15T05:24:53;42.47;;;26.23;;
20014;SDS011;61787;42.022;23.078;2023-01-15T05:25:55;42.97;;;26.10;;
20014;SDS011;61787;42.022;23.078;2023-01-15T05:26:56;44.70;;;27.17;;
20014;SDS011;61787;42.022;23.078;2023-01-15T05:28:00;44.23;;;26.90;;
20014;SDS011;61787;42.022;23.078;2023-01-15T05:29:02;41.23;;;25.50;;
20014;SDS011;61787;42.022;23.078;2023-01-15T05:30:04;41.60;;;26.10;;
20014;SDS011;61787;42.022;23.078;2023-01-15T05:31:07;43.30;;;26.27;;
20014;SDS011;61787;42.022;23.078;2023-01-15T05:32:11;46.20;;;25.90;;
20014;SDS011;61787;42.022;23.078;2023-01-15T05:33:12;41.37;;;25.70;;
20014;SDS011;61787;42.022;23.078;2023-01-15T05:34:14;42.00;;;24.37;;
20014;SDS011;61787;42.022;23.078;2023-01-15T05:35:15;41.80;;;25.10;;
20014;SDS011;61787;42.022;23.078;2023-01-15T05:36:18;39.33;;;24.40;;
20014;SDS011;61787;42.022;23.078;2023-01-15T05:37:22;41.70;;;24.23;;
20014;SDS011;61787;42.022;23.078;2023-01-15T05:38:24;41.70;;;24.40;;
20014;SDS011;61787;42.022;23.078;2023-01-15T05:39:25;38.07;;;23.63;;
20014;SDS011;61787;42.022;23.078;2023-01-15T05:40:27;46.00;;;24.33;;
20014;SDS011;61787;42.022;23.078;2023-01-15T05:41:28;40.47;;;24.50;;
20014;SDS011;61787;42.022;23.078;2023-01-15T05:42:49;41.33;;;23.80;;
20014;SDS011;61787;42.022;23.078;2023-01-15T05:43:50;38.17;;;23.10;;
20014;SDS011;61787;42.022;23.078;2023-01-15T05:44:52;42.67;;;24.97;;
20014;SDS011;61787;42.022;23.078;2023-01-15T05:45:54;39.53;;;25.07;;
20014;SDS011;61787;42.022;23.078;2023-01-15T05:46:59;39.90;;;24.73;;
20014;SDS011;61787;42.022;23.078;2023-01-15T05:48:03;41.00;;;25.50;;
20014;SDS011;61787;42.022;23.078;2023-01-15T05:49:06;40.63;;;24.23;;
20014;SDS011;61787;42.022;23.078;2023-01-15T05:50:09;37.30;;;23.73;;
20014;SDS011;61787;42.022;23.078;2023-01-15T05:51:11;41.07;;;24.63;;
20014;SDS011;61787;42.022;23.078;2023-01-15T05:52:13;38.77;;;23.23;;
20014;SDS011;61787;42.022;23.078;2023-01-15T05:53:14;40.73;;;24.13;;
20014;SDS011;61787;42.022;23.078;2023-01-15T05:54:17;39.63;;;23.83;;
20014;SDS011;61787;42.022;23.078;2023-01-15T05:55:23;41.13;;;23.67;;
20014;SDS011;61787;42.022;23.078;2023-01-15T05:56:25;39.17;;;23.47;;
20014;SDS011;61787;42.022;23.078;2023-01-15T05:57:26;39.10;;;23.67;;
20014;SDS011;61787;42.022;23.078;2023-01-15T05:58:28;34.63;;;21.27;;
20014;SDS011;61787;42.022;23.078;2023-01-15T05:59:30;41.00;;;24.30;;
20014;SDS011;61787;42.022;23.078;2023-01-15T06:00:33;35.67;;;22.07;;
20014;SDS011;61787;42.022;23.078;2023-01-15T06:01:34;36.40;;;22.97;;
20014;SDS011;61787;42.022;23.078;2023-01-15T06:02:37;39.17;;;23.60;;
20014;SDS011;61787;42.022;23.078;2023-01-15T06:03:38;38.37;;;22.53;;
20014;SDS011;61787;42.022;23.078;2023-01-15T06:04:41;38.63;;;22.83;;
20014;SDS011;61787;42.022;23.078;2023-01-15T06:05:43;37.47;;;23.53;;
20014;SDS011;61787;42.022;23.078;2023-01-15T06:06:51;42.40;;;23.97;;
20014;SDS011;61787;42.022;23.078;2023-01-15T06:07:54;38.67;;;23.83;;
20014;SDS011;61787;42.022;23.078;2023-01-15T06:08:55;38.07;;;22.83;;
20014;SDS011;61787;42.022;23.078;2023-01-15T06:09:57;40.07;;;24.47;;
20014;SDS011;61787;42.022;23.078;2023-01-15T06:10:59;40.37;;;25.20;;
20014;SDS011;61787;42.022;23.078;2023-01-15T06:12:00;42.33;;;25.63;;
20014;SDS011;61787;42.022;23.078;2023-01-15T06:13:02;39.30;;;24.73;;
20014;SDS011;61787;42.022;23.078;2023-01-15T06:14:04;39.40;;;24.43;;
20014;SDS011;61787;42.022;23.078;2023-01-15T06:15:06;45.63;;;24.73;;
20014;SDS011;61787;42.022;23.078;2023-01-15T06:16:08;44.37;;;25.13;;
20014;SDS011;61787;42.022;23.078;2023-01-15T06:17:13;40.60;;;25.07;;
20014;SDS011;61787;42.022;23.078;2023-01-15T06:18:15;37.47;;;23.50;;
20014;SDS011;61787;42.022;23.078;2023-01-15T06:19:16;36.80;;;21.90;;
20014;SDS011;61787;42.022;23.078;2023-01-15T06:20:18;45.53;;;24.30;;
20014;SDS011;61787;42.022;23.078;2023-01-15T06:21:20;40.00;;;23.87;;
20014;SDS011;61787;42.022;23.078;2023-01-15T06:22:21;39.43;;;23.13;;
20014;SDS011;61787;42.022;23.078;2023-01-15T06:23:23;512.43;;;54.97;;
20014;SDS011;61787;42.022;23.078;2023-01-15T06:24:25;51.87;;;26.13;;
20014;SDS011;61787;42.022;23.078;2023-01-15T06:25:26;39.53;;;24.07;;
20014;SDS011;61787;42.022;23.078;2023-01-15T06:26:28;39.03;;;23.17;;
20014;SDS011;61787;42.022;23.078;2023-01-15T06:27:29;39.23;;;23.30;;
20014;SDS011;61787;42.022;23.078;2023-01-15T06:28:31;35.80;;;21.37;;
20014;SDS011;61787;42.022;23.078;2023-01-15T06:29:33;38.40;;;21.43;;
20014;SDS011;61787;42.022;23.078;2023-01-15T06:30:36;36.93;;;22.13;;
20014;SDS011;61787;42.022;23.078;2023-01-15T06:31:39;37.57;;;23.43;;
20014;SDS011;61787;42.022;23.078;2023-01-15T06:32:41;36.23;;;21.63;;
20014;SDS011;61787;42.022;23.078;2023-01-15T06:33:43;34.47;;;21.27;;
20014;SDS011;61787;42.022;23.078;2023-01-15T06:34:44;38.03;;;21.47;;